Time;durP1;ratioP1;P1;durP2;ratioP2;P2;SDS_P1;SDS_P2;PMS_P1;PMS_P2;Temp;Humidity;BMP_temperature;BMP_pressure;BME280_temperature;BME280_humidity;BME280_pressure;Samples;Min_cycle;Max_cycle;Signal;HPM_P1;HPM_P2
2023/11/17 00:00:05;;;;;;;33.00;23.90;;;;;;;6.66;100.00;98116.79;109514;1254;59398;-68
2023/11/17 00:02:32;;;;;;;29.90;23.80;;;;;;;6.65;100.00;98116.86;109479;1252;66994;-68
2023/11/17 00:04:58;;;;;;;32.30;25.90;;;;;;;6.65;100.00;98121.07;109479;1254;59289;-68
2023/11/17 00:07:28;;;;;;;33.70;25.40;;;;;;;6.65;100.00;98120.16;109498;1253;65268;-68
2023/11/17 00:09:56;;;;;;;35.90;27.40;;;;;;;6.66;100.00;98114.49;109495;1254;59029;-68
2023/11/17 00:12:23;;;;;;;32.80;27.90;;;;;;;6.66;100.00;98110.95;109567;1254;59184;-68
2023/11/17 00:14:49;;;;;;;37.50;30.00;;;;;;;6.66;100.00;98106.22;109544;1253;66062;-68
2023/11/17 00:17:16;;;;;;;40.90;28.40;;;;;;;6.65;100.00;98106.41;109510;1253;59852;-68
2023/11/17 00:19:44;;;;;;;38.10;28.70;;;;;;;6.65;100.00;98105.02;109498;1254;64059;-68
2023/11/17 00:22:10;;;;;;;38.10;28.70;;;;;;;6.64;100.00;98101.19;109479;1253;59067;-68
2023/11/17 00:24:37;;;;;;;41.10;30.50;;;;;;;6.63;100.00;98101.45;109555;1254;58994;-67
2023/11/17 00:27:04;;;;;;;41.40;30.90;;;;;;;6.62;100.00;98101.52;109527;1254;59254;-67
2023/11/17 00:29:30;;;;;;;36.10;28.30;;;;;;;6.62;100.00;98100.84;109533;1253;59288;-68
2023/11/17 00:31:57;;;;;;;40.30;31.00;;;;;;;6.60;100.00;98102.83;109547;1252;65308;-68
2023/11/17 00:34:24;;;;;;;39.20;30.90;;;;;;;6.60;100.00;98100.86;109500;1254;59037;-68
2023/11/17 00:36:51;;;;;;;39.50;32.80;;;;;;;6.61;100.00;98100.70;109487;1255;58987;-68
2023/11/17 00:39:17;;;;;;;41.40;32.40;;;;;;;6.62;100.00;98097.81;109505;1256;59586;-68
2023/11/17 00:41:44;;;;;;;41.10;32.30;;;;;;;6.62;100.00;98094.13;109543;1254;59000;-67
2023/11/17 00:44:10;;;;;;;40.70;33.30;;;;;;;6.61;100.00;98096.10;109473;1254;62517;-67
2023/11/17 00:46:37;;;;;;;42.30;34.80;;;;;;;6.62;100.00;98096.97;109500;1253;59014;-67
2023/11/17 00:49:04;;;;;;;45.20;36.20;;;;;;;6.61;100.00;98093.64;109536;1252;58998;-67
2023/11/17 00:51:30;;;;;;;41.50;34.70;;;;;;;6.61;100.00;98084.80;109207;1254;65922;-67
2023/11/17 00:54:00;;;;;;;45.90;37.70;;;;;;;6.61;100.00;98076.68;109499;1253;59123;-67
2023/11/17 00:56:27;;;;;;;44.00;37.50;;;;;;;6.61;100.00;98073.17;109498;1253;64056;-68
2023/11/17 00:58:54;;;;;;;43.40;36.50;;;;;;;6.60;100.00;98069.83;109460;1254;58922;-68
2023/11/17 01:01:20;;;;;;;51.60;39.30;;;;;;;6.61;100.00;98065.21;109544;1255;59012;-68
2023/11/17 01:03:47;;;;;;;48.80;38.90;;;;;;;6.61;100.00;98062.91;109521;1253;64830;-68
2023/11/17 01:06:14;;;;;;;50.10;42.10;;;;;;;6.60;100.00;98059.59;109488;1253;61026;-68
2023/11/17 01:08:40;;;;;;;53.30;44.50;;;;;;;6.60;100.00;98062.45;109484;1254;65285;-68
2023/11/17 01:11:09;;;;;;;45.70;39.10;;;;;;;6.58;100.00;98061.66;109535;1253;58944;-68
2023/11/17 01:13:35;;;;;;;45.70;37.80;;;;;;;6.58;100.00;98064.52;109518;1252;58878;-68
2023/11/17 01:16:02;;;;;;;45.90;38.70;;;;;;;6.57;100.00;98059.24;109498;1253;66080;-68
2023/11/17 01:18:29;;;;;;;46.30;37.70;;;;;;;6.57;100.00;98054.71;109512;1254;60107;-67
2023/11/17 01:20:56;;;;;;;45.80;37.00;;;;;;;6.57;100.00;98050.48;109508;1255;62686;-67
2023/11/17 01:23:25;;;;;;;45.00;37.40;;;;;;;6.56;100.00;98047.16;109515;1253;59000;-68
2023/11/17 01:25:51;;;;;;;48.90;39.10;;;;;;;6.56;100.00;98043.98;109541;1254;58957;-68
2023/11/17 01:28:18;;;;;;;49.80;40.00;;;;;;;6.57;100.00;98044.80;109498;1253;59403;-69
2023/11/17 01:30:44;;;;;;;46.70;38.50;;;;;;;6.57;100.00;98040.77;109472;1254;69693;-68
2023/11/17 01:33:12;;;;;;;45.10;36.80;;;;;;;6.57;100.00;98037.80;109205;1254;62532;-68
2023/11/17 01:35:38;;;;;;;45.90;37.90;;;;;;;6.56;100.00;98031.27;109544;1251;58922;-68
2023/11/17 01:38:05;;;;;;;45.70;35.50;;;;;;;6.56;100.00;98032.73;109505;1254;58917;-68
2023/11/17 01:40:32;;;;;;;45.90;38.10;;;;;;;6.54;100.00;98031.08;109484;1254;67223;-68
2023/11/17 01:43:05;;;;;;;45.00;37.40;;;;;;;6.53;100.00;98030.41;109563;1254;60677;-68
2023/11/17 01:45:35;;;;;;;46.40;37.90;;;;;;;6.53;100.00;98028.86;109517;1252;73827;-67
2023/11/17 01:48:01;;;;;;;41.30;34.90;;;;;;;6.53;100.00;98025.67;109485;1253;59278;-68
2023/11/17 01:50:28;;;;;;;39.40;33.40;;;;;;;6.53;100.00;98021.08;109235;1253;59246;-68
2023/11/17 01:52:55;;;;;;;43.40;34.90;;;;;;;6.53;100.00;98018.11;109452;1254;65772;-69
2023/11/17 01:55:24;;;;;;;44.00;35.00;;;;;;;6.53;100.00;98014.93;109503;1252;59854;-68
2023/11/17 01:57:52;;;;;;;39.80;32.30;;;;;;;6.53;100.00;98009.98;109502;1253;64088;-67
2023/11/17 02:00:19;;;;;;;38.00;32.70;;;;;;;6.52;100.00;98005.46;109410;1253;59334;-68
2023/11/17 02:02:51;;;;;;;40.30;34.00;;;;;;;6.52;100.00;98004.42;109591;1254;58877;-67
2023/11/17 02:05:21;;;;;;;38.40;31.40;;;;;;;6.51;100.00;98001.25;109509;1254;66086;-68
2023/11/17 02:07:53;;;;;;;36.30;30.50;;;;;;;6.51;100.00;98000.93;109515;1254;60999;-68
2023/11/17 02:10:43;;;;;;;36.70;29.20;;;;;;;6.50;100.00;97999.23;109504;1254;64123;-68
2023/11/17 02:13:25;;;;;;;35.70;31.80;;;;;;;6.50;100.00;97998.37;109466;1254;58923;-67
2023/11/17 02:15:54;;;;;;;37.80;31.00;;;;;;;6.50;100.00;97996.96;109514;1254;59019;-68
2023/11/17 02:18:24;;;;;;;34.70;28.80;;;;;;;6.51;100.00;97993.02;109534;1254;67161;-68
2023/11/17 02:20:52;;;;;;;35.60;28.20;;;;;;;6.51;100.00;97994.73;109539;1254;60111;-68
2023/11/17 02:23:24;;;;;;;32.90;28.70;;;;;;;6.52;100.00;97991.52;109516;1253;65040;-68
2023/11/17 02:26:15;;;;;;;36.30;29.60;;;;;;;6.52;100.00;97989.23;109505;1253;58989;-68
2023/11/17 02:28:50;;;;;;;34.50;29.00;;;;;;;6.51;100.00;97988.03;109542;1254;59843;-68
2023/11/17 02:31:29;;;;;;;37.80;30.30;;;;;;;6.47;100.00;97982.98;109520;1252;66055;-68
2023/11/17 02:33:57;;;;;;;35.90;30.80;;;;;;;6.46;100.00;97982.37;109494;1252;60185;-68
2023/11/17 02:36:26;;;;;;;34.30;30.30;;;;;;;6.46;100.00;97984.30;109507;1254;63832;-68
2023/11/17 02:38:56;;;;;;;39.20;31.30;;;;;;;6.47;100.00;97986.73;109500;1253;58945;-68
2023/11/17 02:41:29;;;;;;;40.00;33.70;;;;;;;6.48;100.00;97986.49;109527;1253;58854;-68
2023/11/17 02:44:02;;;;;;;37.80;31.90;;;;;;;6.48;100.00;97981.73;109456;1254;67248;-68
2023/11/17 02:46:32;;;;;;;42.40;32.40;;;;;;;6.47;100.00;97980.36;109467;1252;59062;-67
2023/11/17 02:49:01;;;;;;;41.40;33.20;;;;;;;6.48;100.00;97977.87;109500;1254;64053;-68
2023/11/17 02:51:33;;;;;;;39.30;33.40;;;;;;;6.47;100.00;97977.73;109470;1251;58943;-68
2023/11/17 02:54:02;;;;;;;41.80;35.40;;;;;;;6.47;100.00;97976.00;109539;1252;59019;-67
2023/11/17 02:56:30;;;;;;;40.90;33.80;;;;;;;6.46;100.00;97972.84;109483;1253;66045;-67
2023/11/17 02:58:57;;;;;;;41.80;36.30;;;;;;;6.46;100.00;97968.97;109496;1252;60231;-67
2023/11/17 03:01:24;;;;;;;42.30;35.10;;;;;;;6.46;100.00;97970.08;109511;1253;64081;-67
2023/11/17 03:03:51;;;;;;;42.70;35.20;;;;;;;6.45;100.00;97964.48;109489;1253;58935;-67
2023/11/17 03:06:18;;;;;;;46.20;37.70;;;;;;;6.43;100.00;97965.10;109541;1254;58977;-68
2023/11/17 03:08:44;;;;;;;46.50;37.70;;;;;;;6.42;100.00;97964.48;109473;1253;67151;-68
2023/11/17 03:11:11;;;;;;;46.60;36.70;;;;;;;6.41;100.00;97962.96;109535;1254;60209;-68
2023/11/17 03:13:39;;;;;;;48.40;38.20;;;;;;;6.39;100.00;97965.55;109253;1254;64312;-67
2023/11/17 03:16:06;;;;;;;42.40;35.20;;;;;;;6.39;100.00;97964.13;109474;1253;59042;-67
2023/11/17 03:18:38;;;;;;;43.00;36.40;;;;;;;6.38;100.00;97966.11;109513;1253;59062;-67
2023/11/17 03:21:04;;;;;;;48.80;36.80;;;;;;;6.39;100.00;97968.90;109549;1251;66996;-67
2023/11/17 03:23:32;;;;;;;42.20;34.30;;;;;;;6.40;100.00;97970.27;109249;1254;59097;-68
2023/11/17 03:25:59;;;;;;;41.60;34.60;;;;;;;6.40;100.00;97974.50;109506;1254;64866;-67
2023/11/17 03:28:26;;;;;;;43.10;36.50;;;;;;;6.40;100.00;97974.50;109472;1253;58974;-68
2023/11/17 03:30:55;;;;;;;45.40;37.30;;;;;;;6.41;100.00;97977.95;109543;1252;59222;-67
2023/11/17 03:33:22;;;;;;;45.40;35.60;;;;;;;6.41;100.00;97975.29;109511;1252;66089;-67
2023/11/17 03:35:49;;;;;;;41.70;35.10;;;;;;;6.42;100.00;97974.37;109587;1253;60170;-67
2023/11/17 03:38:15;;;;;;;42.40;36.80;;;;;;;6.43;100.00;97976.61;109475;1252;64390;-67
2023/11/17 03:40:46;;;;;;;42.00;35.30;;;;;;;6.43;100.00;97982.42;109226;1253;59037;-68
2023/11/17 03:43:17;;;;;;;;;;;;;;;6.44;100.00;97982.22;109511;1254;59117;-69
2023/11/17 03:45:48;;;;;;;37.90;32.40;;;;;;;6.43;100.00;97982.23;109497;1253;64541;-69
2023/11/17 03:48:15;;;;;;;42.60;32.90;;;;;;;6.45;100.00;97982.81;109478;1254;69405;-69
2023/11/17 03:50:42;;;;;;;43.60;34.80;;;;;;;6.45;100.00;97984.55;109496;1253;64057;-68
2023/11/17 03:53:08;;;;;;;43.10;34.70;;;;;;;6.46;100.00;97979.92;109484;1254;58971;-68
2023/11/17 03:55:35;;;;;;;40.50;33.90;;;;;;;6.46;100.00;97979.89;109170;1253;59058;-68
2023/11/17 03:58:02;;;;;;;40.30;33.80;;;;;;;6.47;100.00;97978.58;109494;1253;65736;-68
2023/11/17 04:00:28;;;;;;;40.80;35.70;;;;;;;6.48;100.00;97974.16;109548;1253;59968;-68
2023/11/17 04:02:57;;;;;;;42.30;33.40;;;;;;;6.47;100.00;97973.29;109519;1254;59024;-69
2023/11/17 04:05:23;;;;;;;38.20;31.80;;;;;;;6.47;100.00;97974.55;109553;1253;59047;-69
2023/11/17 04:07:50;;;;;;;39.20;34.10;;;;;;;6.47;100.00;97972.10;109464;1253;58808;-68
2023/11/17 04:10:19;;;;;;;35.40;30.60;;;;;;;6.47;100.00;97971.35;109467;1254;64638;-67
2023/11/17 04:12:46;;;;;;;35.30;30.70;;;;;;;6.48;100.00;97975.05;109511;1253;60191;-67
2023/11/17 04:15:12;;;;;;;35.80;30.30;;;;;;;6.47;100.00;97977.90;109475;1252;62498;-67
2023/11/17 04:17:39;;;;;;;36.00;30.50;;;;;;;6.47;100.00;97977.02;109474;1254;59025;-68
2023/11/17 04:20:08;;;;;;;39.80;30.00;;;;;;;6.47;100.00;97978.64;109519;1253;59130;-67
2023/11/17 04:22:35;;;;;;;33.00;29.10;;;;;;;6.45;100.00;97974.84;109199;1254;64674;-67
2023/11/17 04:25:03;;;;;;;30.90;26.80;;;;;;;6.45;100.00;97975.73;109499;1254;60204;-68
2023/11/17 04:27:30;;;;;;;31.80;25.90;;;;;;;6.43;100.00;97975.69;109485;1253;64069;-68
2023/11/17 04:29:56;;;;;;;31.10;26.20;;;;;;;6.42;100.00;97975.98;109524;1252;59310;-68
2023/11/17 04:32:23;;;;;;;33.40;27.30;;;;;;;6.41;100.00;97982.36;109477;1253;58999;-68
2023/11/17 04:34:50;;;;;;;29.60;25.60;;;;;;;6.42;100.00;97979.29;109466;1254;67263;-68
2023/11/17 04:37:16;;;;;;;32.70;26.80;;;;;;;6.44;100.00;97982.89;109500;1253;60218;-67
2023/11/17 04:39:43;;;;;;;32.30;25.50;;;;;;;6.44;100.00;97983.06;109482;1252;62813;-67
2023/11/17 04:42:09;;;;;;;27.70;24.30;;;;;;;6.43;100.00;97983.30;109454;1252;59017;-67
2023/11/17 04:44:36;;;;;;;31.40;26.20;;;;;;;6.43;100.00;97983.69;109494;1253;58956;-68
2023/11/17 04:47:03;;;;;;;30.40;24.30;;;;;;;6.44;100.00;97983.42;109516;1253;65745;-69
2023/11/17 04:49:30;;;;;;;28.00;24.40;;;;;;;6.45;100.00;97982.83;109473;1256;59052;-68
2023/11/17 04:51:57;;;;;;;27.20;23.60;;;;;;;6.46;100.00;97980.13;109489;1253;59075;-68
2023/11/17 04:54:24;;;;;;;28.60;21.70;;;;;;;6.46;100.00;97979.05;109509;1253;59350;-68
2023/11/17 04:56:50;;;;;;;25.40;21.80;;;;;;;6.45;100.00;97979.30;109212;1254;59055;-69
2023/11/17 04:59:17;;;;;;;27.20;22.80;;;;;;;6.44;100.00;97978.80;109526;1253;65222;-69
2023/11/17 05:01:44;;;;;;;24.50;21.80;;;;;;;6.44;100.00;97972.95;109513;1252;59347;-68
2023/11/17 05:04:13;;;;;;;25.40;22.50;;;;;;;6.45;100.00;97973.48;109445;1253;65034;-69
2023/11/17 05:06:39;;;;;;;26.40;22.50;;;;;;;6.44;100.00;97973.73;109499;1253;58987;-68
2023/11/17 05:09:10;;;;;;;30.10;25.90;;;;;;;6.43;100.00;97973.23;109475;1252;59837;-68
2023/11/17 05:11:38;;;;;;;30.80;25.50;;;;;;;6.41;100.00;97976.87;109532;1253;66245;-67
2023/11/17 05:14:05;;;;;;;30.40;25.30;;;;;;;6.41;100.00;97978.29;109483;1253;59754;-68
2023/11/17 05:16:34;;;;;;;30.60;24.50;;;;;;;6.41;100.00;97975.64;109520;1253;64126;-68
2023/11/17 05:19:03;;;;;;;29.50;24.70;;;;;;;6.41;100.00;97974.25;109490;1253;58968;-68
2023/11/17 05:21:31;;;;;;;29.50;24.10;;;;;;;6.39;100.00;97976.67;109493;1253;58986;-67
2023/11/17 05:23:58;;;;;;;29.80;24.40;;;;;;;6.37;100.00;97980.51;109495;1253;66931;-67
2023/11/17 05:26:25;;;;;;;29.40;23.30;;;;;;;6.36;100.00;97983.88;109285;1253;60500;-67
2023/11/17 05:28:51;;;;;;;28.30;22.80;;;;;;;6.37;100.00;97987.20;109482;1252;63142;-67
2023/11/17 05:31:18;;;;;;;27.10;22.50;;;;;;;6.36;100.00;97987.58;109477;1252;59446;-68
2023/11/17 05:33:44;;;;;;;28.10;22.00;;;;;;;6.36;100.00;97988.66;109542;1252;58942;-68
2023/11/17 05:36:12;;;;;;;27.20;22.40;;;;;;;6.35;100.00;97992.08;109506;1253;64813;-68
2023/11/17 05:38:39;;;;;;;29.50;22.90;;;;;;;6.35;100.00;97996.15;109505;1253;59939;-68
2023/11/17 05:41:05;;;;;;;30.20;22.50;;;;;;;6.34;100.00;97995.32;109502;1253;64964;-68
2023/11/17 05:43:32;;;;;;;28.20;22.40;;;;;;;6.34;100.00;98000.81;109503;1252;58960;-68
2023/11/17 05:46:00;;;;;;;26.60;22.40;;;;;;;6.34;100.00;98002.21;109502;1252;58937;-68
2023/11/17 05:48:26;;;;;;;27.10;21.70;;;;;;;6.35;100.00;98001.42;109227;1254;65936;-68
2023/11/17 05:50:54;;;;;;;27.50;22.10;;;;;;;6.35;100.00;98002.48;109507;1253;59097;-68
2023/11/17 05:53:21;;;;;;;23.90;20.20;;;;;;;6.35;100.00;98005.48;109500;1253;64077;-69
2023/11/17 05:55:47;;;;;;;27.50;22.50;;;;;;;6.35;100.00;98007.94;109506;1253;58944;-68
2023/11/17 05:58:14;;;;;;;27.80;23.30;;;;;;;6.37;100.00;98014.02;109475;1252;59022;-69
2023/11/17 06:00:40;;;;;;;24.80;20.40;;;;;;;6.38;100.00;98016.94;109519;1251;65775;-68
2023/11/17 06:03:07;;;;;;;28.00;22.80;;;;;;;6.37;100.00;98016.47;109269;1254;59130;-69
2023/11/17 06:05:34;;;;;;;29.50;22.70;;;;;;;6.37;100.00;98018.10;109523;1251;62964;-69
2023/11/17 06:08:01;;;;;;;27.80;23.70;;;;;;;6.37;100.00;98020.20;109453;1253;59001;-69
2023/11/17 06:10:28;;;;;;;28.30;24.60;;;;;;;6.38;100.00;98020.66;109474;1253;58947;-69
2023/11/17 06:12:54;;;;;;;30.40;25.90;;;;;;;6.37;100.00;98021.23;109549;1253;59294;-67
2023/11/17 06:15:26;;;;;;;29.70;25.70;;;;;;;6.36;100.00;98022.33;109514;1254;59006;-67
2023/11/17 06:17:54;;;;;;;29.20;25.60;;;;;;;6.37;100.00;98019.99;109500;1252;62514;-67
2023/11/17 06:20:22;;;;;;;33.20;29.10;;;;;;;6.38;100.00;98021.73;109524;1251;59006;-68
2023/11/17 06:22:48;;;;;;;33.00;29.00;;;;;;;6.40;100.00;98023.90;109538;1252;58961;-69
2023/11/17 06:25:15;;;;;;;34.50;30.80;;;;;;;6.39;100.00;98027.84;109120;1251;64524;-69
2023/11/17 06:27:42;;;;;;;37.30;30.80;;;;;;;6.38;100.00;98026.50;109479;1253;60119;-68
2023/11/17 06:30:10;;;;;;;36.30;31.80;;;;;;;6.38;100.00;98032.31;109530;1252;62513;-67
2023/11/17 06:32:37;;;;;;;36.80;32.50;;;;;;;6.38;100.00;98037.59;109549;1252;59206;-67
2023/11/17 06:35:05;;;;;;;37.00;32.40;;;;;;;6.37;100.00;98040.27;109568;1253;59026;-68
2023/11/17 06:37:32;;;;;;;34.10;29.80;;;;;;;6.37;100.00;98040.98;109515;1252;64516;-67
2023/11/17 06:39:59;;;;;;;36.90;32.50;;;;;;;6.37;100.00;98041.73;109576;1253;60648;-68
2023/11/17 06:42:28;;;;;;;39.50;32.90;;;;;;;6.37;100.00;98040.48;109496;1252;65196;-68
2023/11/17 06:44:57;;;;;;;35.90;32.00;;;;;;;6.38;100.00;98043.04;109468;1253;59317;-67
2023/11/17 06:47:23;;;;;;;34.60;30.90;;;;;;;6.39;100.00;98048.46;109493;1253;59076;-68
2023/11/17 06:49:50;;;;;;;36.20;31.80;;;;;;;6.41;100.00;98053.27;109159;1253;64704;-68
2023/11/17 06:52:16;;;;;;;38.10;33.20;;;;;;;6.42;100.00;98057.30;109553;1252;59114;-67
2023/11/17 06:54:43;;;;;;;38.70;34.60;;;;;;;6.41;100.00;98058.79;109503;1252;63925;-68
2023/11/17 06:57:10;;;;;;;43.70;38.80;;;;;;;6.39;100.00;98060.27;109486;1252;58957;-67
2023/11/17 06:59:37;;;;;;;38.60;34.70;;;;;;;6.40;100.00;98063.06;109544;1252;58986;-67
2023/11/17 07:02:05;;;;;;;40.80;36.20;;;;;;;6.42;100.00;98066.49;109494;1252;66080;-68
2023/11/17 07:04:32;;;;;;;39.70;35.20;;;;;;;6.42;100.00;98069.11;109505;1253;59808;-68
2023/11/17 07:06:59;;;;;;;37.40;32.90;;;;;;;6.43;100.00;98078.03;109525;1251;63938;-67
2023/11/17 07:09:30;;;;;;;40.90;35.80;;;;;;;6.43;100.00;98078.08;109523;1251;59145;-67
2023/11/17 07:12:00;;;;;;;36.10;32.00;;;;;;;6.42;100.00;98085.36;109533;1252;58977;-68
2023/11/17 07:14:30;;;;;;;34.50;30.80;;;;;;;6.41;100.00;98089.30;109503;1253;66027;-67
2023/11/17 07:16:56;;;;;;;37.50;31.60;;;;;;;6.39;100.00;98094.34;109551;1252;60172;-67
2023/11/17 07:19:24;;;;;;;37.00;32.00;;;;;;;6.37;100.00;98095.88;109510;1252;73492;-68
2023/11/17 07:21:50;;;;;;;35.80;29.70;;;;;;;6.37;100.00;98097.63;109486;1253;58938;-68
2023/11/17 07:24:18;;;;;;;36.70;31.30;;;;;;;6.37;100.00;98100.46;109174;1253;59426;-68
2023/11/17 07:26:48;;;;;;;34.70;28.00;;;;;;;6.40;100.00;98103.48;109525;1251;74703;-67
2023/11/17 07:29:16;;;;;;;31.50;26.50;;;;;;;6.43;100.00;98107.14;109543;1251;60007;-67
2023/11/17 07:31:44;;;;;;;30.80;25.80;;;;;;;6.43;100.00;98112.07;109526;1251;64556;-67
2023/11/17 07:34:18;;;;;;;25.50;22.30;;;;;;;6.42;100.00;98114.45;109530;1252;59044;-67
2023/11/17 07:36:46;;;;;;;29.10;25.00;;;;;;;6.39;100.00;98119.04;109545;1251;58970;-66
2023/11/17 07:39:13;;;;;;;29.90;26.60;;;;;;;6.37;100.00;98121.45;109587;1252;66145;-66
2023/11/17 07:41:40;;;;;;;30.40;26.90;;;;;;;6.38;100.00;98124.57;109534;1252;60229;-67
2023/11/17 07:44:08;;;;;;;27.20;24.40;;;;;;;6.41;100.00;98123.52;109493;1252;62856;-67
2023/11/17 07:46:35;;;;;;;29.80;26.30;;;;;;;6.42;100.00;98122.38;109461;1253;59238;-67
2023/11/17 07:49:10;;;;;;;28.00;24.90;;;;;;;6.45;100.00;98128.70;109518;1252;58949;-66
2023/11/17 07:51:37;;;;;;;29.20;26.20;;;;;;;6.47;100.00;98134.02;109525;1252;65009;-67
2023/11/17 07:54:04;;;;;;;28.00;25.00;;;;;;;6.51;100.00;98136.13;109567;1251;59809;-67
2023/11/17 07:56:31;;;;;;;31.10;27.70;;;;;;;6.52;100.00;98140.63;109520;1251;65395;-68
2023/11/17 07:59:03;;;;;;;30.30;26.70;;;;;;;6.51;100.00;98142.45;109499;1252;58998;-68
2023/11/17 08:01:30;;;;;;;32.20;26.90;;;;;;;6.51;100.00;98148.30;109527;1252;59007;-68
2023/11/17 08:03:56;;;;;;;32.00;27.50;;;;;;;6.50;100.00;98149.23;109543;1252;66031;-68
2023/11/17 08:06:23;;;;;;;30.70;25.70;;;;;;;6.48;100.00;98152.70;109528;1251;60532;-68
2023/11/17 08:08:50;;;;;;;28.40;23.60;;;;;;;6.47;100.00;98153.13;109475;1253;65309;-68
2023/11/17 08:11:17;;;;;;;29.90;22.90;;;;;;;6.48;100.00;98159.02;109493;1252;58942;-67
2023/11/17 08:13:44;;;;;;;25.10;20.90;;;;;;;6.52;100.00;98161.11;109522;1251;59306;-67
2023/11/17 08:16:10;;;;;;;24.70;19.80;;;;;;;6.53;100.00;98159.06;109518;1253;65750;-67
2023/11/17 08:18:38;;;;;;;23.10;18.50;;;;;;;6.53;100.00;98163.31;109561;1251;59001;-67
2023/11/17 08:21:06;;;;;;;23.40;19.60;;;;;;;6.50;100.00;98171.08;109564;1252;64134;-67
2023/11/17 08:23:33;;;;;;;16.70;14.90;;;;;;;6.48;100.00;98175.31;109522;1253;58981;-68
2023/11/17 08:26:01;;;;;;;18.30;16.00;;;;;;;6.42;100.00;98180.62;109545;1252;59616;-68
2023/11/17 08:28:28;;;;;;;16.80;14.40;;;;;;;6.37;100.00;98187.42;109509;1253;64482;-68
2023/11/17 08:30:57;;;;;;;16.10;14.20;;;;;;;6.35;100.00;98189.52;109554;1252;60536;-68
2023/11/17 08:33:24;;;;;;;18.90;15.90;;;;;;;6.31;100.00;98195.41;109160;1252;64284;-68
2023/11/17 08:35:51;;;;;;;17.40;14.60;;;;;;;6.31;100.00;98200.19;109535;1251;59379;-68
2023/11/17 08:38:20;;;;;;;15.70;14.00;;;;;;;6.30;100.00;98203.02;109557;1252;58992;-68
2023/11/17 08:40:47;;;;;;;15.40;13.60;;;;;;;6.30;100.00;98211.20;109511;1251;64592;-68
2023/11/17 08:43:18;;;;;;;13.00;11.30;;;;;;;6.31;100.00;98212.53;109590;1252;59383;-68
2023/11/17 08:45:47;;;;;;;12.90;11.40;;;;;;;6.32;100.00;98217.23;109511;1253;64986;-68
2023/11/17 08:48:13;;;;;;;12.50;11.20;;;;;;;6.34;100.00;98221.98;109498;1252;59027;-68
2023/11/17 08:50:40;;;;;;;15.30;11.20;;;;;;;6.37;100.00;98224.82;109384;1252;59001;-68
2023/11/17 08:53:08;;;;;;;11.60;10.40;;;;;;;6.39;100.00;98228.61;109528;1252;66101;-68
2023/11/17 08:55:35;;;;;;;11.70;10.00;;;;;;;6.37;100.00;98235.95;109492;1252;61255;-68
2023/11/17 08:58:01;;;;;;;11.00;9.80;;;;;;;6.36;100.00;98243.77;109492;1253;62528;-68
2023/11/17 09:00:30;;;;;;;12.80;9.40;;;;;;;6.33;100.00;98248.70;109497;1251;58933;-68
2023/11/17 09:02:57;;;;;;;11.40;9.20;;;;;;;6.32;100.00;98254.81;109565;1252;59123;-69
2023/11/17 09:05:23;;;;;;;11.10;9.90;;;;;;;6.29;100.00;98255.49;109521;1251;64903;-70
2023/11/17 09:07:51;;;;;;;15.30;10.50;;;;;;;6.27;100.00;98257.42;109583;1251;59301;-70
2023/11/17 09:10:20;;;;;;;11.10;10.10;;;;;;;6.25;100.00;98255.06;109377;1253;151944;-70
2023/11/17 09:12:48;;;;;;;9.80;8.80;;;;;;;6.24;100.00;98256.15;109527;1251;58927;-70
2023/11/17 09:15:15;;;;;;;9.70;8.80;;;;;;;6.22;100.00;98258.25;109498;1252;59002;-70
2023/11/17 09:17:50;;;;;;;10.40;9.30;;;;;;;6.20;100.00;98254.66;109535;1252;66161;-70
2023/11/17 09:20:18;;;;;;;11.50;9.90;;;;;;;6.21;100.00;98256.21;109416;1252;59873;-71
2023/11/17 09:22:46;;;;;;;13.50;11.70;;;;;;;6.23;100.00;98254.63;109498;1252;65394;-70
2023/11/17 09:25:15;;;;;;;11.70;10.60;;;;;;;6.29;100.00;98255.54;109563;1252;58958;-68
2023/11/17 09:27:54;;;;;;;15.00;12.50;;;;;;;6.37;100.00;98255.20;109537;1252;59032;-70
2023/11/17 09:30:24;;;;;;;12.90;11.60;;;;;;;6.46;100.00;98255.17;109283;1251;64400;-70
2023/11/17 09:32:55;;;;;;;12.00;10.20;;;;;;;6.52;100.00;98260.09;109586;1252;59041;-70
2023/11/17 09:35:25;;;;;;;12.60;11.30;;;;;;;6.52;100.00;98259.90;109505;1252;64322;-70
2023/11/17 09:37:58;;;;;;;12.30;11.00;;;;;;;6.49;100.00;98262.95;109285;1253;59439;-72
2023/11/17 09:40:28;;;;;;;14.00;12.60;;;;;;;6.45;100.00;98267.41;109500;1253;59207;-69
2023/11/17 09:42:57;;;;;;;16.20;14.50;;;;;;;6.37;100.00;98269.10;109532;1252;64492;-69
2023/11/17 09:45:30;;;;;;;18.20;16.30;;;;;;;6.31;100.00;98268.06;109519;1253;60126;-70
2023/11/17 09:47:58;;;;;;;20.40;18.30;;;;;;;6.30;100.00;98273.23;109349;1252;64944;-71
2023/11/17 09:50:29;;;;;;;24.30;21.10;;;;;;;6.30;100.00;98271.67;109375;1252;59246;-70
2023/11/17 09:53:00;;;;;;;26.20;22.30;;;;;;;6.31;100.00;98269.52;109511;1253;59235;-69
2023/11/17 09:55:30;;;;;;;24.10;21.50;;;;;;;6.31;100.00;98270.89;109351;1253;65668;-69
2023/11/17 09:58:06;;;;;;;24.50;21.00;;;;;;;6.32;100.00;98269.98;109474;1253;58956;-70
2023/11/17 10:00:36;;;;;;;21.20;18.90;;;;;;;6.33;100.00;98271.13;109482;1252;64436;-70
2023/11/17 10:03:04;;;;;;;25.90;20.70;;;;;;;6.34;100.00;98271.26;109507;1252;58976;-70
2023/11/17 10:05:33;;;;;;;23.50;21.10;;;;;;;6.35;100.00;98268.19;109360;1252;59011;-70
2023/11/17 10:08:04;;;;;;;24.00;21.10;;;;;;;6.40;100.00;98269.83;109489;1253;64868;-70
2023/11/17 10:10:36;;;;;;;23.10;20.20;;;;;;;6.46;100.00;98269.84;109540;1253;61460;-70
2023/11/17 10:13:13;;;;;;;24.40;21.80;;;;;;;6.47;100.00;98270.79;109479;1252;64266;-70
2023/11/17 10:15:45;;;;;;;23.60;21.20;;;;;;;6.46;100.00;98269.61;109522;1253;59246;-70
2023/11/17 10:18:24;;;;;;;23.10;20.00;;;;;;;6.46;100.00;98270.36;109503;1252;58874;-70
2023/11/17 10:20:51;;;;;;;23.80;20.00;;;;;;;6.46;100.00;98271.05;109378;1253;65741;-68
2023/11/17 10:23:18;;;;;;;23.50;19.00;;;;;;;6.45;100.00;98273.57;109517;1252;59845;-69
2023/11/17 10:25:52;;;;;;;21.20;17.70;;;;;;;6.42;100.00;98279.75;109514;1253;64030;-70
2023/11/17 10:28:19;;;;;;;22.20;18.60;;;;;;;6.41;100.00;98282.11;109510;1252;59080;-70
2023/11/17 10:30:46;;;;;;;23.60;20.30;;;;;;;6.42;100.00;98281.34;109499;1254;58926;-70
2023/11/17 10:33:21;;;;;;;25.50;22.80;;;;;;;6.44;100.00;98282.98;109490;1252;64589;-69
2023/11/17 10:36:12;;;;;;;22.70;20.30;;;;;;;6.45;100.00;98287.52;109512;1253;68767;-70
2023/11/17 10:38:47;;;;;;;22.50;20.20;;;;;;;6.43;100.00;98289.40;109523;1252;63776;-69
2023/11/17 10:41:32;;;;;;;26.70;24.00;;;;;;;6.43;100.00;98294.73;109336;1253;59061;-69
2023/11/17 10:44:03;;;;;;;24.00;21.70;;;;;;;6.41;100.00;98294.14;109155;1253;59023;-68
2023/11/17 10:46:40;;;;;;;22.90;19.90;;;;;;;6.37;100.00;98295.59;109566;1253;64508;-68
2023/11/17 10:49:12;;;;;;;23.50;21.00;;;;;;;6.33;100.00;98298.50;109504;1252;59081;-68
2023/11/17 10:51:46;;;;;;;21.30;19.10;;;;;;;6.32;100.00;98298.21;109496;1253;63795;-69
2023/11/17 10:54:13;;;;;;;22.20;19.90;;;;;;;6.32;100.00;98298.55;109456;1253;59040;-69
2023/11/17 10:56:41;;;;;;;22.10;19.70;;;;;;;6.33;100.00;98297.59;109485;1252;59045;-69
2023/11/17 10:59:21;;;;;;;24.70;20.70;;;;;;;6.31;100.00;98298.79;109499;1252;64660;-69
2023/11/17 11:01:51;;;;;;;26.00;22.60;;;;;;;6.26;100.00;98299.64;109568;1252;60038;-70
2023/11/17 11:04:29;;;;;;;26.70;23.60;;;;;;;6.22;100.00;98302.33;109485;1252;62832;-69
2023/11/17 11:06:57;;;;;;;28.50;24.70;;;;;;;6.21;100.00;98307.34;109131;1252;58975;-69
2023/11/17 11:09:32;;;;;;;32.50;26.30;;;;;;;6.18;100.00;98312.65;109485;1253;59057;-71
2023/11/17 11:11:59;;;;;;;35.40;28.90;;;;;;;6.13;100.00;98315.20;109501;1252;64746;-69
2023/11/17 11:14:27;;;;;;;36.40;29.90;;;;;;;6.10;100.00;98317.66;109492;1253;59959;-70